< < Back
Terminal Aerodrome Forecast


Current Version              Previous Versions:   1  2  3  4  5  6  7  8  9  

Terminal Aerodrome Forecast

064
FTUS42 KMLB 052242 AAC
TAFDAB
TAF AMD
KDAB 052242Z 0523/0618 25004KT P6SM -RA SCT020 SCT045 OVC120
      TEMPO 0523/0601 5SM -TSRA BR BKN045CB
     FM060300 VRB03KT P6SM SCT050 BKN120
     FM060600 17003KT P6SM FEW020 SCT250=



Latest METAR

715
SAUS80 KWBC 060500
MTRDAB
METAR KDAB 060453Z 18004KT 9SM FEW030 FEW090 BKN130 22/21 A3014 RMK AO2
SLP207 T02220211 403220222


USA.gov is the U.S. government's official web portal to all federal, state and local government web resources and services.